Time;durP1;ratioP1;P1;durP2;ratioP2;P2;SDS_P1;SDS_P2;PMS_P1;PMS_P2;Temp;Humidity;BMP_temperature;BMP_pressure;BME280_temperature;BME280_humidity;BME280_pressure;Samples;Min_cycle;Max_cycle;Signal;HPM_P1;HPM_P2
2021/11/08 00:00:50;;;;;;;16.87;12.00;;;;;;;5.69;77.32;98633.40;2227210;79;21020;-80
2021/11/08 00:03:52;;;;;;;14.00;11.53;;;;;;;5.68;77.58;98640.30;2237037;78;21047;-80
2021/11/08 00:06:54;;;;;;;13.07;11.50;;;;;;;5.69;77.70;98640.75;2255753;79;20986;-80
2021/11/08 00:09:55;;;;;;;20.33;11.40;;;;;;;5.69;77.48;98645.05;2255577;79;20987;-80
2021/11/08 00:12:55;;;;;;;15.80;11.20;;;;;;;5.66;77.87;98648.44;2255636;79;20998;-80
2021/11/08 00:22:12;;;;;;;16.80;12.30;;;;;;;5.81;77.78;98656.17;2228585;79;20940;-79
2021/11/08 00:25:12;;;;;;;18.93;10.93;;;;;;;5.86;77.89;98652.87;2255266;79;21003;-79
2021/11/08 00:28:13;;;;;;;16.40;11.97;;;;;;;5.94;77.80;98655.70;2254874;79;21340;-79
2021/11/08 00:31:13;;;;;;;16.77;11.90;;;;;;;6.00;77.54;98653.27;2255424;79;21003;-80
2021/11/08 00:34:14;;;;;;;16.60;11.13;;;;;;;6.03;77.49;98655.53;2255377;79;21054;-80
2021/11/08 00:37:14;;;;;;;14.83;11.97;;;;;;;6.09;77.73;98663.91;2254976;79;20976;-78
2021/11/08 00:40:15;;;;;;;17.17;11.50;;;;;;;6.14;77.37;98662.74;2254866;79;20979;-79
2021/11/08 00:43:15;;;;;;;17.43;11.63;;;;;;;6.19;77.35;98671.09;2255113;79;20932;-80
2021/11/08 00:46:16;;;;;;;16.77;10.73;;;;;;;6.21;77.34;98674.60;2255494;79;20984;-80
2021/11/08 00:49:16;;;;;;;17.60;10.83;;;;;;;6.25;77.05;98669.95;2255903;79;21320;-79
2021/11/08 00:52:17;;;;;;;17.37;11.17;;;;;;;6.27;77.30;98672.17;2255731;79;21329;-80
2021/11/08 00:55:18;;;;;;;15.90;10.50;;;;;;;6.27;76.94;98678.66;2255693;79;20984;-79
2021/11/08 00:58:29;;;;;;;17.53;11.33;;;;;;;6.25;76.99;98676.44;2255547;79;21081;-81
2021/11/08 01:01:24;;;;;;;13.20;10.40;;;;;;;6.25;76.88;98682.92;2254389;79;20966;-79
2021/11/08 01:04:25;;;;;;;13.57;10.67;;;;;;;6.27;77.14;98685.55;2258458;78;21434;-80
2021/11/08 01:07:26;;;;;;;12.23;10.07;;;;;;;6.30;76.81;98689.52;2262487;79;21043;-80
2021/11/08 01:10:26;;;;;;;13.60;9.40;;;;;;;6.34;76.92;98693.95;2261547;79;21378;-81
2021/11/08 01:13:27;;;;;;;13.27;8.97;;;;;;;6.36;76.73;98684.08;2262024;79;20936;-79
2021/11/08 01:16:28;;;;;;;10.60;8.23;;;;;;;6.38;76.58;98687.59;2261781;79;20967;-80
2021/11/08 01:19:29;;;;;;;12.80;9.50;;;;;;;6.41;76.45;98687.20;2262341;79;20988;-80
2021/11/08 01:22:30;;;;;;;10.87;8.63;;;;;;;6.43;76.55;98686.83;2262564;79;20948;-79
2021/11/08 01:25:30;;;;;;;12.67;9.50;;;;;;;6.45;77.01;98691.21;2262107;79;20967;-79
2021/11/08 01:28:36;;;;;;;12.47;8.43;;;;;;;6.44;77.71;98686.86;2262149;79;20952;-81
2021/11/08 01:31:33;;;;;;;13.00;8.83;;;;;;;6.39;77.90;98685.45;2261471;79;21028;-80
2021/11/08 01:34:34;;;;;;;10.47;7.40;;;;;;;6.37;78.17;98693.61;2262348;79;21022;-80
2021/11/08 01:37:36;;;;;;;8.97;7.30;;;;;;;6.34;78.58;98694.83;2261922;79;20963;-80
2021/11/08 01:40:37;;;;;;;13.43;8.67;;;;;;;6.33;78.40;98696.95;2261163;79;20984;-80
2021/11/08 01:43:38;;;;;;;11.77;8.53;;;;;;;6.31;78.23;98701.64;2261696;79;20939;-79
2021/11/08 01:46:39;;;;;;;12.00;8.03;;;;;;;6.31;78.30;98699.05;2261578;79;21007;-79
2021/11/08 01:49:40;;;;;;;10.67;8.43;;;;;;;6.31;78.36;98702.52;2262179;79;20960;-79
2021/11/08 01:52:41;;;;;;;9.97;8.67;;;;;;;6.32;78.28;98710.76;2262498;78;21365;-81
2021/11/08 01:55:42;;;;;;;9.77;7.97;;;;;;;6.34;78.49;98715.56;2262455;79;20965;-81
2021/11/08 01:58:42;;;;;;;12.30;8.30;;;;;;;6.33;78.30;98715.52;2262125;79;21362;-79
2021/11/08 02:01:44;;;;;;;11.87;7.47;;;;;;;6.34;78.24;98704.31;2262020;79;21785;-78
2021/11/08 02:04:45;;;;;;;10.23;7.87;;;;;;;6.33;78.18;98705.16;2245276;78;21063;-79
2021/11/08 02:07:46;;;;;;;10.43;8.03;;;;;;;6.35;78.34;98710.84;2226858;79;20987;-81
2021/11/08 02:10:48;;;;;;;14.50;7.90;;;;;;;6.38;77.96;98712.63;2227372;79;20932;-79
2021/11/08 02:13:48;;;;;;;11.57;7.63;;;;;;;6.38;77.99;98710.91;2226625;80;20940;-79
2021/11/08 02:16:49;;;;;;;10.87;6.93;;;;;;;6.39;77.84;98713.97;2226653;79;20916;-80
2021/11/08 02:19:50;;;;;;;12.50;7.90;;;;;;;6.41;77.76;98720.91;2227515;79;21007;-80
2021/11/08 02:22:51;;;;;;;12.33;7.10;;;;;;;6.38;77.54;98712.22;2227342;79;20933;-80
2021/11/08 02:25:55;;;;;;;11.60;7.17;;;;;;;6.39;77.63;98713.09;2227212;80;20936;-80
2021/11/08 02:28:54;;;;;;;12.47;7.53;;;;;;;6.39;77.53;98724.34;2227278;79;21008;-80
2021/11/08 02:31:57;;;;;;;10.73;7.67;;;;;;;6.37;77.56;98726.44;2227565;79;20941;-82
2021/11/08 02:34:59;;;;;;;10.80;7.47;;;;;;;6.37;77.30;98726.02;2227387;79;21361;-84
2021/11/08 02:37:59;;;;;;;10.47;7.03;;;;;;;6.34;77.35;98735.01;2227996;80;21420;-82
2021/11/08 02:41:00;;;;;;;9.80;6.60;;;;;;;6.31;77.23;98730.16;2228054;80;20976;-81
2021/11/08 02:44:02;;;;;;;10.27;6.33;;;;;;;6.28;77.16;98730.95;2227806;79;21388;-81
2021/11/08 02:47:03;;;;;;;8.20;6.90;;;;;;;6.23;77.17;98731.67;2227584;79;21008;-82
2021/11/08 02:50:04;;;;;;;8.30;6.90;;;;;;;6.16;77.11;98744.88;2227887;79;20943;-82
2021/11/08 02:53:06;;;;;;;10.70;7.40;;;;;;;6.08;77.40;98738.61;2227658;79;20924;-82
2021/11/08 02:56:07;;;;;;;8.90;6.93;;;;;;;6.04;77.30;98734.14;2227007;79;20952;-81
2021/11/08 02:59:07;;;;;;;8.37;6.37;;;;;;;6.00;77.25;98740.07;2227077;79;20972;-80
2021/11/08 03:02:08;;;;;;;8.90;6.70;;;;;;;5.96;77.57;98742.12;2227174;79;20960;-82
2021/11/08 03:05:12;;;;;;;11.10;7.20;;;;;;;5.90;77.51;98747.12;2245899;78;20991;-82
2021/11/08 03:08:12;;;;;;;12.93;6.80;;;;;;;5.82;77.55;98748.58;2262209;79;20956;-82
2021/11/08 03:11:12;;;;;;;12.43;7.40;;;;;;;5.74;77.85;98758.72;2263134;79;20945;-81
2021/11/08 03:14:22;;;;;;;9.77;6.80;;;;;;;5.68;77.73;98767.19;2262860;79;21336;-81
2021/11/08 03:17:24;;;;;;;9.73;6.23;;;;;;;5.64;77.84;98765.76;2262721;79;21402;-82
2021/11/08 03:20:24;;;;;;;9.40;6.40;;;;;;;5.59;78.12;98769.50;2262774;79;20976;-80
2021/11/08 03:23:25;;;;;;;13.33;7.60;;;;;;;5.51;78.05;98776.58;2263069;79;20931;-80
2021/11/08 03:26:35;;;;;;;9.23;6.17;;;;;;;5.76;78.88;98776.06;2262745;79;20952;-81
2021/11/08 03:29:28;;;;;;;10.97;6.57;;;;;;;5.69;78.15;98779.30;2260537;79;21363;-81
2021/11/08 03:32:28;;;;;;;9.37;6.03;;;;;;;5.58;77.80;98783.28;2262297;79;21006;-82
2021/11/08 03:35:29;;;;;;;10.17;7.20;;;;;;;5.59;79.06;98786.75;2262675;79;21000;-81
2021/11/08 03:38:36;;;;;;;11.83;6.47;;;;;;;5.62;77.83;98788.14;2263064;79;21285;-83
2021/11/08 03:41:32;;;;;;;9.43;6.00;;;;;;;5.53;77.78;98790.03;2261627;79;21417;-81
2021/11/08 03:44:33;;;;;;;8.07;5.87;;;;;;;5.43;77.89;98791.88;2262548;79;20955;-82
2021/11/08 03:47:33;;;;;;;9.23;5.90;;;;;;;5.31;77.82;98796.25;2262588;79;21391;-81
2021/11/08 03:50:34;;;;;;;7.80;5.50;;;;;;;5.23;77.90;98800.72;2262785;79;21019;-80
2021/11/08 03:53:34;;;;;;;10.83;6.30;;;;;;;5.16;78.19;98800.03;2262334;79;21035;-81
2021/11/08 03:56:35;;;;;;;8.53;5.77;;;;;;;5.10;78.41;98806.76;2262174;79;20956;-81
2021/11/08 03:59:36;;;;;;;9.97;5.97;;;;;;;5.05;78.40;98797.97;2262638;79;21339;-81
2021/11/08 04:02:36;;;;;;;11.10;5.50;;;;;;;4.98;78.76;98793.84;2262771;79;21359;-80
2021/11/08 04:05:37;;;;;;;10.00;6.10;;;;;;;4.92;78.81;98803.56;2257875;79;21395;-81
2021/11/08 04:08:37;;;;;;;8.70;5.40;;;;;;;4.90;78.92;98797.47;2255754;79;20916;-80
2021/11/08 04:11:40;;;;;;;9.13;5.87;;;;;;;4.87;79.01;98798.66;2228905;79;21378;-81
2021/11/08 04:14:42;;;;;;;8.37;6.50;;;;;;;4.86;79.44;98790.43;2255853;79;20944;-82
2021/11/08 04:17:46;;;;;;;10.63;6.67;;;;;;;4.87;79.12;98794.78;2256230;79;21012;-82
2021/11/08 04:20:46;;;;;;;10.83;5.93;;;;;;;4.87;79.40;98792.61;2255758;79;20987;-81
2021/11/08 04:23:47;;;;;;;11.47;7.13;;;;;;;4.86;79.50;98790.43;2256277;79;20952;-83
2021/11/08 04:26:47;;;;;;;14.07;7.47;;;;;;;4.89;79.48;98788.36;2256515;79;20948;-81
2021/11/08 04:29:48;;;;;;;10.63;7.33;;;;;;;4.93;80.06;98788.52;2255391;79;20932;-81
2021/11/08 04:39:30;;;;;;;13.00;8.17;;;;;;;5.09;79.62;98779.13;2255925;79;21026;-82
2021/11/08 04:42:34;;;;;;;19.67;8.97;;;;;;;5.17;79.52;98786.26;2254620;79;20992;-81
2021/11/08 04:48:55;;;;;;;14.50;7.55;;;;;;;5.29;79.28;98793.16;2228533;79;20979;-82
2021/11/08 04:52:12;;;;;;;12.40;7.17;;;;;;;5.38;79.21;98787.84;2254369;79;20992;-82
2021/11/08 05:24:28;;;;;;;13.07;6.33;;;;;;;5.80;78.30;98805.52;2227661;79;20995;-82
2021/11/08 05:30:40;;;;;;;8.73;5.97;;;;;;;5.86;78.13;98810.89;2253584;79;20947;-80
2021/11/08 05:33:41;;;;;;;12.77;6.57;;;;;;;5.90;78.02;98814.48;2254193;79;20928;-80
2021/11/08 05:36:41;;;;;;;14.03;6.93;;;;;;;5.93;78.03;98821.05;2253811;78;21427;-82
2021/11/08 05:39:46;;;;;;;15.20;8.00;;;;;;;5.95;77.90;98820.67;2253910;79;20975;-81
2021/11/08 05:42:44;;;;;;;15.40;7.43;;;;;;;6.00;77.72;98829.47;2253533;79;20995;-81
2021/11/08 05:45:45;;;;;;;13.63;6.50;;;;;;;6.03;77.62;98830.44;2254779;79;21750;-83
2021/11/08 05:48:45;;;;;;;12.50;6.80;;;;;;;6.08;77.58;98842.27;2255334;78;20996;-81
2021/11/08 05:51:46;;;;;;;20.30;8.17;;;;;;;6.11;77.41;98846.23;2256490;79;20968;-80
2021/11/08 05:54:47;;;;;;;17.53;8.07;;;;;;;6.14;77.29;98841.14;2255484;79;20943;-79
2021/11/08 05:57:53;;;;;;;20.23;10.93;;;;;;;6.19;77.04;98850.34;2255649;79;20944;-80
2021/11/08 06:01:50;;;;;;;22.03;11.77;;;;;;;6.22;77.11;98858.22;2254624;79;21436;-81
2021/11/08 06:50:10;;;;;;;15.73;6.60;;;;;;;6.64;75.44;98925.98;2254628;79;21024;-79
2021/11/08 06:53:18;;;;;;;14.83;7.67;;;;;;;6.71;75.08;98928.80;2255230;79;20960;-81
2021/11/08 06:56:13;;;;;;;11.20;6.87;;;;;;;6.76;74.92;98934.11;2253435;79;21707;-79
2021/11/08 06:59:15;;;;;;;16.10;6.57;;;;;;;6.84;74.70;98922.66;2254323;79;20991;-80
2021/11/08 07:02:15;;;;;;;15.67;6.53;;;;;;;6.89;74.48;98929.73;2254749;79;21621;-81
2021/11/08 07:05:16;;;;;;;16.70;6.57;;;;;;;6.95;74.45;98933.82;2255012;79;20979;-79
2021/11/08 07:08:16;;;;;;;14.77;7.10;;;;;;;6.99;73.71;98934.78;2227701;79;20980;-80
2021/11/08 07:11:17;;;;;;;23.00;11.27;;;;;;;7.04;73.84;98935.79;2225133;79;20967;-81
2021/11/08 07:14:18;;;;;;;19.00;8.30;;;;;;;7.11;74.01;98941.60;2227115;79;20952;-80
2021/11/08 07:17:18;;;;;;;17.00;7.63;;;;;;;7.17;73.71;98936.58;2225802;80;20939;-79
2021/11/08 07:20:19;;;;;;;15.80;6.67;;;;;;;7.21;73.60;98935.81;2225780;79;20980;-79
2021/11/08 07:23:19;;;;;;;18.90;8.70;;;;;;;7.26;73.11;98940.71;2225761;79;21335;-79
2021/11/08 07:26:23;;;;;;;12.57;5.70;;;;;;;7.32;73.16;98945.19;2226328;79;20998;-81
2021/11/08 07:29:25;;;;;;;11.77;6.50;;;;;;;7.35;72.91;98940.08;2227364;79;20932;-81
2021/11/08 07:32:26;;;;;;;17.67;5.63;;;;;;;7.39;73.12;98943.21;2226136;79;21447;-84
2021/11/08 07:35:29;;;;;;;11.90;5.93;;;;;;;7.43;72.93;98947.64;2227088;79;21031;-81
2021/11/08 07:38:31;;;;;;;15.20;6.47;;;;;;;7.47;72.82;98951.20;2226897;79;21010;-81
2021/11/08 07:41:32;;;;;;;12.27;5.33;;;;;;;7.52;72.64;98950.89;2225927;79;20971;-80
2021/11/08 07:44:33;;;;;;;15.17;5.40;;;;;;;7.52;72.45;98950.48;2226259;80;21288;-81
2021/11/08 07:47:33;;;;;;;10.40;5.53;;;;;;;7.58;72.20;98957.13;2226474;79;20956;-80
2021/11/08 07:50:34;;;;;;;13.53;5.37;;;;;;;7.63;72.07;98958.13;2225982;79;20986;-82
2021/11/08 07:53:34;;;;;;;14.57;5.23;;;;;;;7.70;71.62;98950.48;2226371;79;20967;-79
2021/11/08 07:56:35;;;;;;;18.07;5.30;;;;;;;7.71;71.15;98957.43;2226770;79;20960;-79
2021/11/08 07:59:35;;;;;;;11.20;5.70;;;;;;;7.74;71.75;98964.00;2227136;79;21007;-79
2021/11/08 08:02:36;;;;;;;8.93;5.07;;;;;;;7.75;71.51;98964.05;2226781;79;21336;-79
2021/11/08 08:08:42;;;;;;;13.97;5.33;;;;;;;8.59;69.78;98972.56;2213768;79;20975;-80
2021/11/08 08:11:43;;;;;;;12.37;5.10;;;;;;;8.59;69.78;98972.56;2233495;79;20976;-79
2021/11/08 08:14:43;;;;;;;13.53;5.40;;;;;;;8.49;69.77;98970.60;2232683;79;21355;-78
2021/11/08 08:17:44;;;;;;;13.37;5.23;;;;;;;8.44;69.03;98971.80;2232962;79;20962;-79
2021/11/08 08:20:44;;;;;;;15.17;6.23;;;;;;;8.41;69.33;98970.86;2233959;79;21026;-79
2021/11/08 08:23:45;;;;;;;15.50;6.00;;;;;;;8.37;68.94;98988.12;2235009;80;20978;-79
2021/11/08 08:26:48;;;;;;;18.03;6.00;;;;;;;8.35;69.16;98995.00;2213360;80;20923;-78
2021/11/08 08:29:51;;;;;;;18.97;5.50;;;;;;;8.34;68.77;98988.05;2233020;79;20924;-78
2021/11/08 08:32:51;;;;;;;18.90;6.17;;;;;;;8.42;69.55;98993.42;2233021;79;20975;-80
2021/11/08 08:35:51;;;;;;;14.97;5.57;;;;;;;8.56;69.65;98988.10;2233227;79;21058;-79
2021/11/08 08:38:52;;;;;;;12.50;6.57;;;;;;;8.69;69.39;98989.28;2232023;79;20979;-79
2021/11/08 08:41:52;;;;;;;13.83;6.00;;;;;;;8.69;68.64;98996.67;2233054;79;21370;-80
2021/11/08 08:44:53;;;;;;;14.13;6.23;;;;;;;8.70;68.60;98995.82;2234082;80;21405;-78
2021/11/08 08:47:53;;;;;;;17.63;5.97;;;;;;;8.75;67.76;99010.23;2234029;79;20924;-79
2021/11/08 08:50:54;;;;;;;13.40;7.10;;;;;;;8.76;67.93;99006.78;2233533;79;20951;-79
2021/11/08 08:53:55;;;;;;;11.93;5.27;;;;;;;8.79;67.87;99010.33;2234174;79;20939;-80
2021/11/08 08:56:56;;;;;;;12.93;4.93;;;;;;;8.77;67.58;99010.72;2234032;79;20979;-79
2021/11/08 08:59:56;;;;;;;16.23;5.30;;;;;;;8.75;67.52;99011.53;2233520;79;20987;-79
2021/11/08 09:02:57;;;;;;;14.23;5.13;;;;;;;8.75;67.88;99020.64;2232367;79;20944;-79
2021/11/08 09:05:58;;;;;;;17.90;4.50;;;;;;;8.70;67.58;99027.05;2232604;79;21118;-81
2021/11/08 09:08:58;;;;;;;13.00;4.77;;;;;;;8.71;67.85;99022.72;2225953;79;21396;-82
2021/11/08 09:11:59;;;;;;;15.73;5.60;;;;;;;8.69;67.78;99021.39;2225680;79;20916;-79
2021/11/08 09:15:00;;;;;;;12.77;5.47;;;;;;;8.68;68.07;99036.55;2225443;79;20933;-80
2021/11/08 09:18:00;;;;;;;13.60;5.57;;;;;;;8.67;68.39;99032.19;2225899;79;21688;-79
2021/11/08 09:24:03;;;;;;;17.60;6.73;;;;;;;8.57;67.99;99033.67;2215007;80;20959;-80
2021/11/08 09:27:04;;;;;;;13.07;5.83;;;;;;;8.48;68.29;99041.69;2225873;79;21367;-77
2021/11/08 09:30:04;;;;;;;15.07;5.60;;;;;;;8.37;68.29;99033.64;2225392;79;20948;-79
2021/11/08 09:33:07;;;;;;;8.97;4.50;;;;;;;8.18;68.89;99055.69;2212921;80;20971;-78
2021/11/08 09:36:08;;;;;;;12.37;4.53;;;;;;;8.18;68.89;99055.69;2224768;79;21030;-78
2021/11/08 09:39:09;;;;;;;15.30;5.90;;;;;;;8.10;69.85;99052.44;2224934;80;20979;-77
2021/11/08 09:42:10;;;;;;;16.20;6.80;;;;;;;8.09;70.29;99048.96;2223998;79;21692;-78
2021/11/08 09:45:11;;;;;;;10.50;5.37;;;;;;;8.09;70.73;99058.06;2224826;79;21399;-76
2021/11/08 09:48:12;;;;;;;11.90;4.60;;;;;;;8.11;70.58;99058.98;2225373;79;20916;-79
2021/11/08 09:51:13;;;;;;;11.03;5.47;;;;;;;8.01;70.72;99055.69;2225075;79;21627;-77
2021/11/08 09:54:13;;;;;;;17.33;6.57;;;;;;;8.06;70.97;99059.70;2223961;79;21019;-76
2021/11/08 09:57:14;;;;;;;12.17;5.53;;;;;;;8.14;70.99;99052.55;2224475;79;20991;-78
2021/11/08 10:00:14;;;;;;;14.30;6.50;;;;;;;8.19;71.00;99056.15;2225611;79;20975;-80
2021/11/08 10:03:15;;;;;;;13.57;6.53;;;;;;;8.24;70.96;99058.44;2225681;79;20936;-79
2021/11/08 10:06:16;;;;;;;15.30;6.43;;;;;;;8.34;70.69;99057.39;2226462;80;20975;-80
2021/11/08 10:09:20;;;;;;;15.40;6.47;;;;;;;8.36;70.40;99055.28;2225693;80;20971;-79
2021/11/08 10:12:20;;;;;;;14.57;5.67;;;;;;;8.38;70.15;99055.32;2225787;79;20955;-80
2021/11/08 10:15:21;;;;;;;12.10;4.27;;;;;;;8.40;70.11;99062.73;2225403;79;21371;-79
2021/11/08 10:18:22;;;;;;;14.80;5.33;;;;;;;8.42;69.49;99061.05;2224697;79;20937;-80
2021/11/08 10:21:22;;;;;;;12.60;5.73;;;;;;;8.42;69.83;99059.33;2225278;79;20991;-79
2021/11/08 10:24:23;;;;;;;16.23;5.83;;;;;;;8.53;69.04;99063.48;2224652;79;20983;-79
2021/11/08 10:27:23;;;;;;;9.47;4.47;;;;;;;8.62;69.19;99067.60;2226647;79;20920;-78
2021/11/08 10:30:24;;;;;;;8.13;4.20;;;;;;;8.73;68.01;99059.66;2225574;79;20954;-80
2021/11/08 10:33:29;;;;;;;6.80;3.90;;;;;;;8.79;68.01;99064.11;2225557;80;21289;-79
2021/11/08 10:36:27;;;;;;;6.30;3.40;;;;;;;8.87;67.92;99069.06;2226329;79;21505;-79
2021/11/08 10:39:27;;;;;;;8.13;4.93;;;;;;;8.93;67.54;99063.99;2226299;80;20984;-79
2021/11/08 10:42:28;;;;;;;8.43;4.23;;;;;;;8.96;67.89;99062.76;2225747;79;20959;-80
2021/11/08 10:45:28;;;;;;;6.53;4.03;;;;;;;8.98;67.69;99064.97;2226055;79;20963;-78
2021/11/08 10:48:30;;;;;;;10.30;5.40;;;;;;;8.93;67.63;99063.57;2225990;80;20912;-79
2021/11/08 10:51:30;;;;;;;9.57;5.00;;;;;;;8.91;68.05;99070.89;2226757;79;20955;-80
2021/11/08 10:54:31;;;;;;;8.37;4.10;;;;;;;8.81;67.41;99088.03;2226249;79;20952;-81
2021/11/08 10:57:32;;;;;;;11.77;5.60;;;;;;;8.62;68.14;99079.31;2225911;79;21288;-80
2021/11/08 11:00:33;;;;;;;9.57;4.67;;;;;;;8.56;68.56;99085.25;2226170;79;21095;-79
2021/11/08 11:03:33;;;;;;;8.77;4.70;;;;;;;8.47;68.95;99086.76;2226243;79;21466;-81
2021/11/08 11:09:36;;;;;;;11.03;4.37;;;;;;;8.46;69.18;99094.11;2213012;80;20959;-79
2021/11/08 11:12:37;;;;;;;7.40;4.03;;;;;;;8.39;68.84;99100.00;2232970;80;20928;-80
2021/11/08 11:15:38;;;;;;;11.43;5.10;;;;;;;8.27;69.07;99104.02;2232939;79;21308;-80
2021/11/08 11:18:41;;;;;;;9.37;5.43;;;;;;;8.22;69.46;99109.95;2232994;80;21024;-80
2021/11/08 11:21:42;;;;;;;10.20;5.60;;;;;;;8.16;70.07;99103.30;2233019;79;20983;-78
2021/11/08 11:24:43;;;;;;;12.03;5.90;;;;;;;8.10;70.23;99105.32;2232454;79;20970;-79
2021/11/08 11:27:47;;;;;;;14.70;6.67;;;;;;;8.11;70.31;99108.38;2232678;79;21018;-79
2021/11/08 11:30:46;;;;;;;12.77;5.97;;;;;;;8.12;70.24;99108.84;2232651;79;21026;-80
2021/11/08 11:33:46;;;;;;;11.50;5.97;;;;;;;8.12;70.41;99108.84;2233966;79;20955;-82
2021/11/08 11:36:47;;;;;;;13.33;6.00;;;;;;;8.14;70.60;99114.95;2233427;79;20979;-79
2021/11/08 11:39:48;;;;;;;11.43;5.50;;;;;;;8.15;70.80;99115.42;2232779;79;20991;-79
2021/11/08 11:42:49;;;;;;;9.70;5.10;;;;;;;8.14;71.02;99114.95;2232560;79;21312;-80
2021/11/08 11:45:49;;;;;;;12.80;5.87;;;;;;;8.10;72.59;99118.32;2233455;79;21304;-79
2021/11/08 11:48:50;;;;;;;11.97;6.67;;;;;;;7.94;73.35;99113.56;2232814;80;20967;-80
2021/11/08 11:51:50;;;;;;;13.20;7.37;;;;;;;7.85;74.38;99117.22;2232479;79;20935;-79
2021/11/08 11:54:51;;;;;;;14.43;7.40;;;;;;;7.71;75.52;99119.83;2232517;79;21360;-77
2021/11/08 11:57:55;;;;;;;22.23;11.83;;;;;;;7.61;77.06;99122.59;2232473;79;20939;-79
2021/11/08 12:00:58;;;;;;;30.10;13.00;;;;;;;7.48;77.27;99143.86;2233185;79;21070;-78
2021/11/08 12:03:56;;;;;;;25.97;12.33;;;;;;;7.33;77.78;99119.21;2233295;79;21019;-80
2021/11/08 12:06:56;;;;;;;25.07;11.10;;;;;;;7.29;78.35;99116.48;2233906;79;20968;-79
2021/11/08 12:09:57;;;;;;;14.10;8.40;;;;;;;7.30;78.49;99120.84;2225976;79;21008;-78
2021/11/08 12:12:57;;;;;;;14.10;8.20;;;;;;;7.34;79.24;99109.70;2225749;80;20936;-79
2021/11/08 12:15:58;;;;;;;10.97;6.90;;;;;;;7.39;79.16;99113.73;2225367;79;21328;-78
2021/11/08 12:18:59;;;;;;;14.50;8.57;;;;;;;7.50;78.90;99118.39;2225610;79;21407;-78
2021/11/08 12:22:00;;;;;;;10.87;8.20;;;;;;;7.63;78.07;99119.61;2225566;80;20905;-78
2021/11/08 12:25:01;;;;;;;13.27;7.33;;;;;;;8.09;78.34;99119.16;2226131;79;20940;-79
2021/11/08 12:28:01;;;;;;;12.50;7.67;;;;;;;8.09;78.34;99119.16;2225418;80;20948;-76
2021/11/08 12:31:02;;;;;;;12.33;7.50;;;;;;;8.06;77.33;99115.18;2225879;79;21011;-78
2021/11/08 12:34:02;;;;;;;15.90;8.27;;;;;;;7.97;77.16;99111.05;2225775;79;20936;-79
2021/11/08 12:37:03;;;;;;;9.83;7.93;;;;;;;7.93;77.61;99115.28;2224465;80;21000;-78
2021/11/08 12:40:04;;;;;;;11.10;6.03;;;;;;;7.82;77.55;99116.72;2225443;79;21013;-78
2021/11/08 12:43:04;;;;;;;11.40;6.83;;;;;;;7.77;77.93;99117.39;2226833;80;21422;-79
2021/11/08 12:46:05;;;;;;;10.50;7.17;;;;;;;7.69;78.12;99121.08;2226348;79;20954;-79
2021/11/08 12:49:06;;;;;;;13.73;10.07;;;;;;;7.61;78.00;99119.58;2225497;79;20999;-76
2021/11/08 12:52:06;;;;;;;18.57;10.10;;;;;;;7.64;78.49;99127.88;2225876;80;20947;-79
2021/11/08 12:55:07;;;;;;;29.40;12.40;;;;;;;7.72;78.41;99122.89;2225995;80;20955;-80
2021/11/08 12:58:07;;;;;;;20.00;11.23;;;;;;;7.77;78.31;99127.79;2226570;79;20947;-79
2021/11/08 13:01:08;;;;;;;18.53;9.07;;;;;;;7.81;78.43;99121.88;2226720;79;20968;-78
2021/11/08 13:04:11;;;;;;;17.83;8.73;;;;;;;7.74;78.66;99123.39;2226463;79;20987;-81
2021/11/08 13:07:11;;;;;;;15.33;8.80;;;;;;;7.77;79.07;99132.98;2225630;79;21438;-81
2021/11/08 13:10:12;;;;;;;15.77;9.43;;;;;;;7.77;79.07;99132.98;2224840;79;21381;-79
2021/11/08 13:13:12;;;;;;;11.80;7.77;;;;;;;7.77;78.94;99135.17;2225181;79;20952;-79
2021/11/08 13:16:13;;;;;;;12.53;8.77;;;;;;;7.78;79.95;99139.53;2224699;79;20951;-80
2021/11/08 13:19:14;;;;;;;15.73;9.70;;;;;;;7.77;80.38;99135.59;2225024;79;21019;-79
2021/11/08 13:22:15;;;;;;;12.00;9.27;;;;;;;7.76;80.40;99137.72;2225530;79;20947;-79
2021/11/08 13:25:15;;;;;;;16.13;8.47;;;;;;;7.75;80.41;99134.66;2225035;79;20955;-80
2021/11/08 13:28:16;;;;;;;11.70;8.67;;;;;;;7.79;81.28;99138.69;2226028;79;21004;-79
2021/11/08 13:31:16;;;;;;;15.37;8.97;;;;;;;7.83;80.88;99143.58;2225457;79;20971;-79
2021/11/08 13:34:17;;;;;;;16.50;9.30;;;;;;;7.87;80.65;99148.02;2225014;79;20972;-79
2021/11/08 13:37:18;;;;;;;14.70;9.30;;;;;;;7.91;80.49;99144.67;2224108;79;21695;-79
2021/11/08 13:40:18;;;;;;;14.80;10.70;;;;;;;7.92;80.37;99145.13;2225583;80;21007;-80
2021/11/08 13:43:22;;;;;;;18.93;10.93;;;;;;;7.98;80.33;99146.17;2226421;79;21478;-80
2021/11/08 14:21:57;;;;;;;18.37;10.13;;;;;;;7.86;80.52;99169.23;2292206;77;23348;-79
2021/11/08 14:28:00;;;;;;;19.80;10.67;;;;;;;7.76;80.37;99171.50;2221368;79;21382;-79
2021/11/08 14:31:00;;;;;;;17.93;10.90;;;;;;;7.75;80.46;99176.23;2240714;79;20967;-78
2021/11/08 14:34:03;;;;;;;16.27;11.80;;;;;;;7.74;80.54;99177.08;2241385;79;20982;-78
2021/11/08 14:37:06;;;;;;;17.00;10.83;;;;;;;7.67;80.79;99176.91;2241270;79;20931;-80
2021/11/08 14:40:13;;;;;;;15.27;11.53;;;;;;;7.64;81.14;99176.81;2241244;78;21056;-81
2021/11/08 14:43:08;;;;;;;21.53;12.23;;;;;;;7.56;81.33;99177.02;2242114;79;21035;-81
2021/11/08 14:46:09;;;;;;;14.30;10.03;;;;;;;7.54;81.40;99177.39;2241200;79;21676;-81
2021/11/08 14:49:09;;;;;;;15.57;11.40;;;;;;;7.52;82.35;99184.26;2240857;79;21011;-81
2021/11/08 14:52:10;;;;;;;17.07;11.53;;;;;;;7.47;82.06;99180.64;2240891;79;20952;-80
2021/11/08 14:55:12;;;;;;;13.67;9.90;;;;;;;7.45;82.31;99181.02;2241001;79;20998;-80
2021/11/08 14:58:13;;;;;;;17.30;12.00;;;;;;;7.48;82.45;99186.30;2241779;79;20924;-81
2021/11/08 15:01:14;;;;;;;19.57;13.13;;;;;;;7.45;82.43;99189.23;2240765;79;21026;-78
2021/11/08 15:04:19;;;;;;;15.47;10.73;;;;;;;7.47;82.35;99191.45;2241338;79;20932;-77
2021/11/08 15:07:19;;;;;;;20.77;13.63;;;;;;;7.45;82.60;99204.39;2241470;79;20908;-78
2021/11/08 15:10:20;;;;;;;25.70;16.23;;;;;;;7.42;82.84;99206.90;2241509;79;20974;-79
2021/11/08 15:13:20;;;;;;;37.23;21.37;;;;;;;7.38;83.18;99208.94;2241500;79;20963;-80
2021/11/08 15:16:21;;;;;;;33.73;19.97;;;;;;;7.31;84.21;99216.08;2241131;79;20951;-80
2021/11/08 15:19:21;;;;;;;27.93;18.00;;;;;;;7.26;83.92;99208.57;2241486;79;20986;-80
2021/11/08 15:22:22;;;;;;;27.23;15.83;;;;;;;7.21;84.38;99206.25;2227692;80;21355;-79
2021/11/08 15:25:22;;;;;;;27.83;15.20;;;;;;;7.14;84.99;99210.38;2227381;80;21050;-77
2021/11/08 15:28:23;;;;;;;26.23;16.73;;;;;;;7.07;84.58;99214.02;2227251;80;20964;-76
2021/11/08 15:31:24;;;;;;;23.67;15.37;;;;;;;7.03;84.24;99211.75;2226802;80;20969;-80
2021/11/08 15:34:25;;;;;;;17.80;13.40;;;;;;;7.01;84.92;99222.50;2227278;80;20971;-81
2021/11/08 15:37:26;;;;;;;22.17;15.83;;;;;;;6.98;85.08;99223.70;2226997;80;21011;-82
2021/11/08 15:40:26;;;;;;;21.97;15.37;;;;;;;6.97;85.19;99225.41;2227243;80;20944;-81
2021/11/08 15:43:27;;;;;;;28.03;17.70;;;;;;;6.98;84.86;99225.88;2227602;80;20988;-82
2021/11/08 15:46:27;;;;;;;32.23;19.30;;;;;;;6.99;85.23;99222.87;2227811;80;20979;-82
2021/11/08 15:49:28;;;;;;;27.83;17.10;;;;;;;6.96;85.20;99234.03;2227498;80;21037;-82
2021/11/08 15:52:32;;;;;;;25.80;17.23;;;;;;;6.95;85.14;99237.88;2227112;80;20994;-82
2021/11/08 15:55:31;;;;;;;26.70;18.60;;;;;;;6.92;85.61;99241.22;2227375;79;21028;-81
2021/11/08 15:58:32;;;;;;;26.50;18.80;;;;;;;6.90;85.25;99242.89;2228201;80;20979;-80
2021/11/08 16:01:32;;;;;;;32.23;18.60;;;;;;;6.89;85.20;99240.24;2227605;80;20985;-79
2021/11/08 16:04:33;;;;;;;34.47;19.63;;;;;;;6.89;85.78;99249.32;2227347;80;20943;-80
2021/11/08 16:10:36;;;;;;;30.20;17.40;;;;;;;6.89;86.19;99248.91;2243240;79;21004;-79
2021/11/08 16:13:36;;;;;;;28.43;16.73;;;;;;;6.89;85.99;99252.80;2228888;80;20980;-79
2021/11/08 16:16:37;;;;;;;27.73;18.10;;;;;;;6.90;86.41;99258.45;2227760;80;20957;-79
2021/11/08 16:19:37;;;;;;;19.90;14.17;;;;;;;6.88;86.12;99252.33;2229979;79;21010;-80
2021/11/08 16:22:38;;;;;;;25.80;17.10;;;;;;;6.88;87.65;99262.72;2262607;79;21031;-80
2021/11/08 16:25:39;;;;;;;33.40;20.07;;;;;;;6.86;86.99;99263.08;2262825;79;20964;-79
2021/11/08 16:28:39;;;;;;;25.73;16.77;;;;;;;6.86;86.26;99261.78;2262933;79;20944;-80
2021/11/08 16:31:40;;;;;;;41.70;23.43;;;;;;;6.89;86.81;99277.87;2262499;79;20982;-78
2021/11/08 16:34:40;;;;;;;37.03;21.60;;;;;;;6.90;86.69;99270.55;2262057;79;20963;-79